Time;durP1;ratioP1;P1;durP2;ratioP2;P2;SDS_P1;SDS_P2;PMS_P1;PMS_P2;Temp;Humidity;BMP_temperature;BMP_pressure;BME280_temperature;BME280_humidity;BME280_pressure;Samples;Min_cycle;Max_cycle;Signal;HPM_P1;HPM_P2
2023/07/17 00:02:35;;;;;;;;;;;;;;;27.97;40.37;100883.14;2341233;74;51660;-76
2023/07/17 00:05:37;;;;;;;;;;;;;;;27.98;40.37;100887.53;2361370;74;50305;-76
2023/07/17 00:08:38;;;;;;;;;;;;;;;27.98;40.37;100883.98;2395240;73;50304;-77
2023/07/17 00:11:40;;;;;;;;;;;;;;;27.98;40.36;100882.62;2397541;73;50624;-76
2023/07/17 00:14:41;;;;;;;;;;;;;;;27.98;40.36;100883.45;2397530;74;50394;-76
2023/07/17 00:17:43;;;;;;;;;;;;;;;27.98;40.37;100878.55;2363607;74;50655;-75
2023/07/17 00:20:44;;;;;;;;;;;;;;;27.97;40.39;100891.30;2397422;74;50619;-75
2023/07/17 00:23:47;;;;;;;;;;;;;;;27.97;40.39;100883.67;2363852;73;51586;-75
2023/07/17 00:26:49;;;;;;;;;;;;;;;27.97;40.40;100880.41;2391396;74;51209;-77
2023/07/17 00:29:50;;;;;;;;;;;;;;;27.96;40.39;100882.86;2363741;74;50291;-76
2023/07/17 00:32:52;;;;;;;;;;;;;;;27.97;40.40;100874.98;2396011;73;50632;-76
2023/07/17 00:35:53;;;;;;;;;;;;;;;27.97;40.40;100872.80;2361489;74;53256;-75
2023/07/17 00:38:55;;;;;;;;;;;;;;;27.97;40.38;100870.89;2334789;74;52237;-76
2023/07/17 00:41:57;;;;;;;;;;;;;;;27.97;40.40;100864.64;2361598;74;51460;-75
2023/07/17 00:44:59;;;;;;;;;;;;;;;27.97;40.41;100866.00;2395088;74;51446;-76
2023/07/17 00:48:00;;;;;;;;;;;;;;;27.97;40.42;100870.89;2394855;73;51404;-75
2023/07/17 00:51:03;;;;;;;;;;;;;;;27.97;40.41;100870.08;2394911;74;51538;-76
2023/07/17 00:54:05;;;;;;;;;;;;;;;27.97;40.43;100867.36;2395107;73;50741;-77
2023/07/17 00:57:07;;;;;;;;;;;;;;;27.97;40.43;100880.95;2394870;74;50258;-75
2023/07/17 01:00:10;;;;;;;;;;;;;;;27.96;40.46;100886.12;2395446;74;51503;-76
2023/07/17 01:03:13;;;;;;;;;;;;;;;27.95;40.46;100886.66;2396117;74;22351;-75
2023/07/17 01:06:15;;;;;;;;;;;;;;;27.95;40.46;100875.77;2394756;74;52339;-76
2023/07/17 01:09:17;;;;;;;;;;;;;;;27.96;40.46;100867.08;2395051;74;51372;-74
2023/07/17 01:12:19;;;;;;;;;;;;;;;27.95;40.44;100864.90;2395116;74;51518;-75
2023/07/17 01:15:21;;;;;;;;;;;;;;;27.95;40.46;100858.09;2389289;73;52379;-76
2023/07/17 01:18:22;;;;;;;;;;;;;;;27.95;40.47;100864.90;2394845;74;51381;-76
2023/07/17 01:21:25;;;;;;;;;;;;;;;27.96;40.43;100865.72;2361427;74;51528;-76
2023/07/17 01:24:27;;;;;;;;;;;;;;;27.95;40.46;100861.33;2394774;74;51510;-75
2023/07/17 01:27:29;;;;;;;;;;;;;;;27.95;40.48;100858.61;2334733;74;51106;-76
2023/07/17 01:30:30;;;;;;;;;;;;;;;27.95;40.48;100858.61;2361681;74;50338;-75
2023/07/17 01:33:32;;;;;;;;;;;;;;;27.94;40.49;100855.06;2395715;73;50657;-75
2023/07/17 01:36:34;;;;;;;;;;;;;;;27.94;40.49;100852.34;2394564;74;51632;-76
2023/07/17 01:39:35;;;;;;;;;;;;;;;27.94;40.50;100853.70;2389116;73;52271;-75
2023/07/17 01:42:37;;;;;;;;;;;;;;;27.94;40.50;100851.52;2361344;74;50216;-76
2023/07/17 01:45:39;;;;;;;;;;;;;;;27.94;40.50;100853.70;2361427;74;50321;-76
2023/07/17 01:48:40;;;;;;;;;;;;;;;27.93;40.50;100847.98;2394788;74;51448;-76
2023/07/17 01:51:42;;;;;;;;;;;;;;;27.93;40.52;100847.98;2335079;74;50943;-76
2023/07/17 01:54:43;;;;;;;;;;;;;;;27.93;40.52;100856.14;2361453;74;51364;-75
2023/07/17 01:57:45;;;;;;;;;;;;;;;27.93;40.53;100864.30;2394725;74;50479;-76
2023/07/17 02:00:47;;;;;;;;;;;;;;;27.93;40.54;100866.20;2395459;74;52353;-76
2023/07/17 02:03:49;;;;;;;;;;;;;;;27.94;40.55;100865.95;2335769;74;52826;-75
2023/07/17 02:06:50;;;;;;;;;;;;;;;27.92;40.54;100863.99;2361047;74;51401;-75
2023/07/17 02:09:52;;;;;;;;;;;;;;;27.92;40.56;100869.44;2394928;74;51444;-76
2023/07/17 02:12:54;;;;;;;;;;;;;;;27.92;40.57;100863.99;2361406;74;51498;-75
2023/07/17 02:15:56;;;;;;;;;;;;;;;27.92;40.57;100862.63;2334708;74;51675;-76
2023/07/17 02:18:58;;;;;;;;;;;;;;;27.92;40.59;100869.44;2361720;74;50261;-76
2023/07/17 02:22:00;;;;;;;;;;;;;;;27.92;40.58;100873.52;2361796;74;51483;-75
2023/07/17 02:25:02;;;;;;;;;;;;;;;27.90;40.58;100868.88;2394909;74;50220;-76
2023/07/17 02:28:03;;;;;;;;;;;;;;;27.91;40.59;100868.33;2361337;74;50166;-76
2023/07/17 02:31:05;;;;;;;;;;;;;;;27.91;40.59;100880.56;2362004;74;50267;-76
2023/07/17 02:34:07;;;;;;;;;;;;;;;27.90;40.63;100881.11;2363448;74;51498;-75
2023/07/17 02:37:11;;;;;;;;;;;;;;;27.90;40.61;100882.47;2392734;73;51504;-76
2023/07/17 02:40:13;;;;;;;;;;;;;;;27.90;40.63;100875.67;2396299;73;50417;-75
2023/07/17 02:43:15;;;;;;;;;;;;;;;27.89;40.63;100869.92;2397814;73;51552;-74
2023/07/17 02:46:17;;;;;;;;;;;;;;;27.89;40.62;100879.44;2397961;73;50255;-75
2023/07/17 02:49:18;;;;;;;;;;;;;;;27.89;40.61;100879.98;2392343;74;49760;-75
2023/07/17 02:52:20;;;;;;;;;;;;;;;27.89;40.62;100875.36;2393694;74;50955;-75
2023/07/17 02:55:21;;;;;;;;;;;;;;;27.88;40.64;100860.13;2396458;73;50643;-75
2023/07/17 02:58:23;;;;;;;;;;;;;;;27.88;40.64;100864.20;2398008;74;50692;-75
2023/07/17 03:01:25;;;;;;;;;;;;;;;27.88;40.60;100873.72;2390770;74;53881;-75
2023/07/17 03:04:27;;;;;;;;;;;;;;;27.88;40.62;100880.52;2363965;74;50284;-75
2023/07/17 03:07:28;;;;;;;;;;;;;;;27.88;40.63;100872.36;2364846;74;51650;-74
2023/07/17 03:10:30;;;;;;;;;;;;;;;27.88;40.61;100883.23;2396087;73;51460;-78
2023/07/17 03:13:32;;;;;;;;;;;;;;;27.89;40.63;100892.22;2399116;73;51114;-76
2023/07/17 03:16:33;;;;;;;;;;;;;;;27.88;40.62;100886.50;2397535;73;50331;-76
2023/07/17 03:19:35;;;;;;;;;;;;;;;27.87;40.66;100876.12;2391674;73;49541;-76
2023/07/17 03:22:37;;;;;;;;;;;;;;;27.88;40.62;100887.31;2391711;74;50616;-75
2023/07/17 03:25:40;;;;;;;;;;;;;;;27.88;40.62;100890.03;2397671;74;50268;-74
2023/07/17 03:28:42;;;;;;;;;;;;;;;27.87;40.63;100881.56;2397419;74;50323;-76
2023/07/17 03:31:43;;;;;;;;;;;;;;;27.88;40.61;100879.70;2380219;73;50089;-75
2023/07/17 03:34:45;;;;;;;;;;;;;;;27.89;40.58;100882.70;2363692;74;50225;-76
2023/07/17 03:37:46;;;;;;;;;;;;;;;27.89;40.60;100889.49;2391450;73;50293;-76
2023/07/17 03:40:48;;;;;;;;;;;;;;;27.88;40.59;100887.31;2397530;74;50708;-76
2023/07/17 03:43:49;;;;;;;;;;;;;;;27.88;40.60;100881.05;2391678;74;50943;-76
2023/07/17 03:46:51;;;;;;;;;;;;;;;27.88;40.59;100888.67;2363661;74;51708;-76
2023/07/17 03:49:53;;;;;;;;;;;;;;;27.88;40.59;100887.85;2397474;74;51514;-76
2023/07/17 03:52:55;;;;;;;;;;;;;;;27.88;40.58;100894.11;2397492;73;50347;-75
2023/07/17 03:55:56;;;;;;;;;;;;;;;27.88;40.58;100898.20;2363539;74;51644;-76
2023/07/17 03:58:58;;;;;;;;;;;;;;;27.88;40.56;100892.75;2391790;74;51378;-75
2023/07/17 04:01:59;;;;;;;;;;;;;;;27.89;40.57;100893.03;2379264;74;53541;-76
2023/07/17 04:05:01;;;;;;;;;;;;;;;27.88;40.54;100898.20;2397307;74;51488;-76
2023/07/17 04:08:03;;;;;;;;;;;;;;;27.90;40.55;100908.81;2391237;73;52311;-76
2023/07/17 04:11:04;;;;;;;;;;;;;;;27.88;40.56;100901.45;2391452;73;51439;-75
2023/07/17 04:14:08;;;;;;;;;;;;;;;27.89;40.55;100900.38;2397372;73;51370;-75
2023/07/17 04:17:10;;;;;;;;;;;;;;;27.89;40.54;100911.25;2397597;74;22191;-76
2023/07/17 04:20:12;;;;;;;;;;;;;;;27.88;40.56;100918.59;2391128;74;51660;-76
2023/07/17 04:23:15;;;;;;;;;;;;;;;27.89;40.56;100915.33;2397630;73;51570;-76
2023/07/17 04:26:17;;;;;;;;;;;;;;;27.88;40.52;100913.16;2397611;74;22358;-74
2023/07/17 04:29:22;;;;;;;;;;;;;;;27.89;40.53;100918.87;2397392;74;50681;-77
2023/07/17 04:32:24;;;;;;;;;;;;;;;27.90;40.53;100919.19;2352484;74;52402;-76
2023/07/17 04:35:26;;;;;;;;;;;;;;;27.89;40.50;100913.44;2397526;74;52166;-76
2023/07/17 04:38:27;;;;;;;;;;;;;;;27.89;40.50;100908.53;2391615;73;50751;-75
2023/07/17 04:41:29;;;;;;;;;;;;;;;27.89;40.48;100899.84;2391573;74;51717;-76
2023/07/17 04:44:31;;;;;;;;;;;;;;;27.89;40.49;100901.19;2363766;74;52450;-75
2023/07/17 04:47:33;;;;;;;;;;;;;;;27.89;40.44;100898.47;2391539;74;50393;-75
2023/07/17 04:50:34;;;;;;;;;;;;;;;27.90;40.45;100902.87;2391455;74;50002;-76
2023/07/17 04:53:36;;;;;;;;;;;;;;;27.92;40.35;100903.42;2363763;74;51295;-76
2023/07/17 04:56:38;;;;;;;;;;;;;;;27.94;40.30;100905.92;2363551;74;50995;-77
2023/07/17 04:59:39;;;;;;;;;;;;;;;27.90;40.21;100911.03;2386880;74;51507;-75
2023/07/17 05:02:41;;;;;;;;;;;;;;;27.89;40.19;100908.53;2355878;73;50221;-75
2023/07/17 05:05:44;;;;;;;;;;;;;;;27.96;40.14;100916.03;2397467;74;51539;-76
2023/07/17 05:08:46;;;;;;;;;;;;;;;28.03;39.94;100918.09;2363662;74;52596;-76
2023/07/17 05:11:48;;;;;;;;;;;;;;;28.08;39.78;100915.99;2397470;74;51480;-76
2023/07/17 05:14:49;;;;;;;;;;;;;;;28.07;39.82;100909.73;2391602;74;51414;-76
2023/07/17 05:17:51;;;;;;;;;;;;;;;28.02;39.94;100913.70;2397329;74;51339;-74
2023/07/17 05:20:52;;;;;;;;;;;;;;;28.06;39.99;100914.07;2363612;74;51198;-75
2023/07/17 05:23:54;;;;;;;;;;;;;;;28.04;39.98;100912.11;2391410;73;50213;-76
2023/07/17 05:26:55;;;;;;;;;;;;;;;28.04;39.97;100914.30;2391243;73;50344;-75
2023/07/17 05:29:57;;;;;;;;;;;;;;;28.05;39.99;100926.00;2388419;73;50495;-75
2023/07/17 05:32:59;;;;;;;;;;;;;;;28.11;39.98;100928.59;2358914;74;51518;-76
2023/07/17 05:36:00;;;;;;;;;;;;;;;28.16;39.79;100930.61;2397306;74;52839;-75
2023/07/17 05:39:02;;;;;;;;;;;;;;;28.15;39.77;100921.59;2391121;73;51432;-75
2023/07/17 05:42:03;;;;;;;;;;;;;;;28.11;39.88;100929.14;2391496;73;51412;-75
2023/07/17 05:45:05;;;;;;;;;;;;;;;28.12;39.88;100928.06;2363837;74;52387;-77
2023/07/17 05:48:07;;;;;;;;;;;;;;;28.20;39.73;100920.88;2391433;74;50417;-75
2023/07/17 05:51:08;;;;;;;;;;;;;;;28.28;39.64;100931.91;2397327;74;50337;-75
2023/07/17 05:54:10;;;;;;;;;;;;;;;28.36;39.55;100928.30;2397446;74;50468;-76
2023/07/17 05:57:12;;;;;;;;;;;;;;;28.43;39.47;100931.68;2391264;73;51671;-74
2023/07/17 06:00:14;;;;;;;;;;;;;;;28.50;39.40;100923.95;2390999;74;51411;-75
2023/07/17 06:03:17;;;;;;;;;;;;;;;28.55;39.30;100930.86;2390781;74;51480;-75
2023/07/17 06:06:19;;;;;;;;;;;;;;;28.58;39.25;100933.09;2378217;73;50669;-76
2023/07/17 06:09:21;;;;;;;;;;;;;;;28.61;39.21;100929.88;2362366;74;51392;-75
2023/07/17 06:12:22;;;;;;;;;;;;;;;28.68;39.08;100936.55;2397452;74;50637;-75
2023/07/17 06:15:24;;;;;;;;;;;;;;;28.72;38.97;100935.81;2364009;74;51403;-76
2023/07/17 06:18:25;;;;;;;;;;;;;;;28.77;38.80;100926.38;2397262;74;51579;-74
2023/07/17 06:21:27;;;;;;;;;;;;;;;28.79;38.81;100922.85;2391396;74;51100;-75
2023/07/17 06:24:28;;;;;;;;;;;;;;;28.84;38.75;100921.58;2363754;74;50420;-74
2023/07/17 06:27:30;;;;;;;;;;;;;;;28.85;38.67;100922.40;2397191;74;50210;-76
2023/07/17 06:30:32;;;;;;;;;;;;;;;28.87;38.64;100926.53;2397482;73;50357;-75
2023/07/17 06:33:38;;;;;;;;;;;;;;;28.90;38.53;100927.12;2391522;73;51778;-74
2023/07/17 06:36:36;;;;;;;;;;;;;;;28.91;38.53;100924.70;2364700;74;22428;-75
2023/07/17 06:39:38;;;;;;;;;;;;;;;28.95;38.49;100923.94;2396691;74;51406;-75
2023/07/17 06:42:40;;;;;;;;;;;;;;;28.91;38.57;100940.50;2397454;73;51399;-75
2023/07/17 06:45:43;;;;;;;;;;;;;;;28.90;38.49;100938.83;2391603;74;52471;-75
2023/07/17 06:48:44;;;;;;;;;;;;;;;28.83;38.57;100943.09;2391267;74;50190;-75
2023/07/17 06:51:46;;;;;;;;;;;;;;;28.82;38.48;100937.36;2397258;74;50283;-76
2023/07/17 06:54:47;;;;;;;;;;;;;;;28.87;38.19;100944.23;2397450;73;50246;-75
2023/07/17 06:57:49;;;;;;;;;;;;;;;28.84;38.36;100943.38;2391280;73;51647;-74
2023/07/17 07:00:55;;;;;;;;;;;;;;;28.84;38.27;100937.92;2391482;73;51487;-76
2023/07/17 07:03:56;;;;;;;;;;;;;;;28.90;38.19;100938.02;2397341;74;52390;-75
2023/07/17 07:06:58;;;;;;;;;;;;;;;28.85;38.29;100942.32;2395380;74;50597;-74
2023/07/17 07:10:00;;;;;;;;;;;;;;;28.82;38.33;100941.96;2390860;74;52271;-74
2023/07/17 07:13:01;;;;;;;;;;;;;;;28.77;38.35;100948.17;2391557;73;52186;-74
2023/07/17 07:16:03;;;;;;;;;;;;;;;28.70;38.39;100946.13;2391504;74;49937;-75
2023/07/17 07:19:05;;;;;;;;;;;;;;;28.66;38.48;100943.58;2391318;73;50668;-74
2023/07/17 07:22:07;;;;;;;;;;;;;;;28.64;38.47;100944.36;2391428;73;51246;-75
2023/07/17 07:25:09;;;;;;;;;;;;;;;28.67;38.36;100950.70;2391484;74;51493;-75
2023/07/17 07:28:12;;;;;;;;;;;;;;;28.64;38.34;100954.73;2397117;73;51509;-75
2023/07/17 07:31:13;;;;;;;;;;;;;;;28.63;38.22;100954.42;2397426;74;50673;-77
2023/07/17 07:34:15;;;;;;;;;;;;;;;28.72;38.06;100956.24;2391510;74;52504;-76
2023/07/17 07:37:17;;;;;;;;;;;;;;;28.77;38.00;100959.06;2375078;74;50740;-75
2023/07/17 07:40:18;;;;;;;;;;;;;;;28.82;38.01;100960.52;2389159;74;51380;-76
2023/07/17 07:43:20;;;;;;;;;;;;;;;28.87;37.91;100963.84;2395022;74;51668;-77
2023/07/17 07:46:21;;;;;;;;;;;;;;;28.90;37.94;100965.25;2388722;73;52342;-75
2023/07/17 07:49:23;;;;;;;;;;;;;;;28.91;37.79;100967.75;2394922;74;51383;-76
2023/07/17 07:52:25;;;;;;;;;;;;;;;28.91;37.85;100962.84;2361358;74;51607;-76
2023/07/17 07:55:26;;;;;;;;;;;;;;;28.93;37.83;100967.48;2394843;74;52413;-76
2023/07/17 07:58:28;;;;;;;;;;;;;;;28.93;37.75;100973.78;2334713;74;51208;-75
2023/07/17 08:01:29;;;;;;;;;;;;;;;28.94;37.78;100977.33;2361472;74;50275;-76
2023/07/17 08:04:31;;;;;;;;;;;;;;;28.96;37.68;100982.00;2361325;74;50336;-76
2023/07/17 08:07:32;;;;;;;;;;;;;;;28.95;37.68;100976.23;2395548;74;50657;-76
2023/07/17 08:10:37;;;;;;;;;;;;;;;28.95;37.56;100981.69;2361613;74;52809;-76
2023/07/17 08:13:38;;;;;;;;;;;;;;;28.96;37.48;100991.53;2362238;74;22211;-76
2023/07/17 08:16:40;;;;;;;;;;;;;;;28.96;37.42;100986.91;2394642;74;51270;-76
2023/07/17 08:19:41;;;;;;;;;;;;;;;28.94;37.42;100985.50;2394886;73;50671;-75
2023/07/17 08:22:44;;;;;;;;;;;;;;;28.95;37.39;100986.59;2388837;73;51218;-76
2023/07/17 08:25:45;;;;;;;;;;;;;;;28.96;37.30;100994.26;2361549;74;51559;-75
2023/07/17 08:28:47;;;;;;;;;;;;;;;28.95;37.31;100998.03;2394640;73;51291;-77
2023/07/17 08:31:48;;;;;;;;;;;;;;;28.95;37.29;100988.50;2394792;74;51355;-75
2023/07/17 08:34:50;;;;;;;;;;;;;;;28.93;37.41;100987.41;2394804;74;50787;-74
2023/07/17 08:37:52;;;;;;;;;;;;;;;28.95;37.39;100983.88;2362067;74;51574;-76
2023/07/17 08:40:53;;;;;;;;;;;;;;;28.95;37.29;100987.14;2361458;74;51461;-74
2023/07/17 08:43:55;;;;;;;;;;;;;;;28.94;37.27;100986.32;2394875;73;51335;-75
2023/07/17 08:46:57;;;;;;;;;;;;;;;28.94;37.09;100986.86;2388928;74;50998;-75
2023/07/17 08:49:59;;;;;;;;;;;;;;;28.90;37.14;100981.05;2394877;74;50605;-76
2023/07/17 08:53:00;;;;;;;;;;;;;;;28.89;37.13;100978.05;2394750;74;51932;-74
2023/07/17 08:56:02;;;;;;;;;;;;;;;28.90;37.06;100978.33;2394810;74;51385;-75
2023/07/17 08:59:03;;;;;;;;;;;;;;;28.90;37.03;100976.15;2388653;73;50201;-74
2023/07/17 09:02:05;;;;;;;;;;;;;;;28.89;37.10;100975.33;2394819;73;50083;-74
2023/07/17 09:05:07;;;;;;;;;;;;;;;28.87;37.11;100981.01;2361374;74;51535;-75
2023/07/17 09:08:09;;;;;;;;;;;;;;;28.88;37.02;100966.34;2362148;74;50632;-75
2023/07/17 09:11:10;;;;;;;;;;;;;;;28.87;37.10;100970.66;2334813;74;52503;-76
2023/07/17 09:14:12;;;;;;;;;;;;;;;28.86;37.00;100973.92;2394763;74;51406;-75
2023/07/17 09:17:14;;;;;;;;;;;;;;;28.84;37.10;100975.23;2394569;74;51428;-75
2023/07/17 09:20:19;;;;;;;;;;;;;;;28.83;37.06;100968.97;2394830;74;50721;-75
2023/07/17 09:23:20;;;;;;;;;;;;;;;28.84;37.10;100975.23;2388871;74;51694;-75
2023/07/17 09:26:22;;;;;;;;;;;;;;;28.82;36.96;100981.45;2361059;74;51492;-75
2023/07/17 09:29:24;;;;;;;;;;;;;;;28.81;36.93;100978.45;2394794;74;50320;-75
2023/07/17 09:32:26;;;;;;;;;;;;;;;28.80;36.77;100980.36;2361420;74;50252;-76
2023/07/17 09:35:27;;;;;;;;;;;;;;;28.79;36.69;100975.14;2388974;74;51197;-75
2023/07/17 09:38:30;;;;;;;;;;;;;;;28.78;36.62;100981.12;2362881;74;50027;-75
2023/07/17 09:41:32;;;;;;;;;;;;;;;28.78;36.64;100981.12;2397390;74;51447;-75
2023/07/17 09:44:33;;;;;;;;;;;;;;;28.77;36.55;100984.94;2391197;74;52475;-76
2023/07/17 09:47:35;;;;;;;;;;;;;;;28.75;36.56;100971.27;2397050;73;50716;-76
2023/07/17 09:50:37;;;;;;;;;;;;;;;28.74;36.59;100985.39;2391071;74;50345;-76
2023/07/17 09:53:40;;;;;;;;;;;;;;;28.76;36.67;100976.45;2397279;74;49996;-75
2023/07/17 09:56:42;;;;;;;;;;;;;;;28.73;36.69;100972.04;2391116;73;50700;-75
2023/07/17 09:59:44;;;;;;;;;;;;;;;28.74;36.70;100967.69;2391158;74;51188;-76
2023/07/17 10:02:59;;;;;;;;;;;;;;;28.73;36.70;100960.61;2397168;74;50619;-75
2023/07/17 10:06:01;;;;;;;;;;;;;;;28.70;36.82;100977.98;2391448;73;50367;-75
2023/07/17 10:09:02;;;;;;;;;;;;;;;28.69;36.86;100962.69;2395094;74;50428;-76
2023/07/17 10:12:04;;;;;;;;;;;;;;;28.68;36.83;100961.88;2388847;74;51180;-75
2023/07/17 10:15:06;;;;;;;;;;;;;;;28.66;36.79;100968.91;2394823;74;50257;-75
2023/07/17 10:18:09;;;;;;;;;;;;;;;28.66;36.83;100966.73;2394554;73;51516;-75
2023/07/17 10:21:11;;;;;;;;;;;;;;;28.66;36.80;100973.53;2394754;74;50447;-75
2023/07/17 10:24:12;;;;;;;;;;;;;;;28.66;36.81;100966.73;2334732;74;52436;-75
2023/07/17 10:27:14;;;;;;;;;;;;;;;28.67;36.80;100975.20;2360999;74;51457;-75
2023/07/17 10:30:17;;;;;;;;;;;;;;;28.64;36.82;100967.50;2394681;74;50360;-77
2023/07/17 10:33:20;;;;;;;;;;;;;;;28.65;36.77;100971.89;2391256;74;50266;-76
2023/07/17 10:36:39;;;;;;;;;;;;;;;28.63;36.81;100974.03;2394825;73;51562;-75
2023/07/17 10:39:42;;;;;;;;;;;;;;;28.64;36.69;100959.33;2394992;74;51524;-75
2023/07/17 10:42:44;;;;;;;;;;;;;;;28.61;36.77;100972.89;2361227;74;50558;-75
2023/07/17 10:45:47;;;;;;;;;;;;;;;28.60;36.69;100975.34;2394657;74;50245;-74
2023/07/17 10:48:48;;;;;;;;;;;;;;;28.60;36.64;100959.00;2388460;74;51730;-74
2023/07/17 10:51:50;;;;;;;;;;;;;;;28.59;36.61;100960.59;2361220;74;51437;-75
2023/07/17 10:54:52;;;;;;;;;;;;;;;28.59;36.54;100963.31;2394765;74;51542;-76
2023/07/17 10:57:54;;;;;;;;;;;;;;;28.58;36.46;100963.03;2394746;74;50383;-76
2023/07/17 11:00:56;;;;;;;;;;;;;;;28.59;36.46;100964.16;2388863;74;51721;-76
2023/07/17 11:03:57;;;;;;;;;;;;;;;28.57;36.42;100969.56;2394995;74;51417;-75
2023/07/17 11:07:07;;;;;;;;;;;;;;;28.55;36.43;100963.53;2395070;74;51282;-75
2023/07/17 11:10:11;;;;;;;;;;;;;;;28.55;36.41;100956.72;2395621;73;52366;-74
2023/07/17 11:13:13;;;;;;;;;;;;;;;28.55;36.38;100960.80;2334872;74;51662;-74
2023/07/17 11:16:14;;;;;;;;;;;;;;;28.56;36.25;100957.82;2394820;73;49948;-74
2023/07/17 11:19:21;;;;;;;;;;;;;;;28.57;36.08;100954.59;2394964;74;50253;-75
2023/07/17 11:22:19;;;;;;;;;;;;;;;28.57;36.07;100956.77;2395135;74;22345;-74
2023/07/17 11:25:21;;;;;;;;;;;;;;;28.59;36.12;100946.47;2361433;74;51498;-75
2023/07/17 11:28:22;;;;;;;;;;;;;;;28.58;36.15;100953.51;2394615;74;51574;-76
2023/07/17 11:31:25;;;;;;;;;;;;;;;28.56;36.23;100950.19;2394783;73;50484;-74
2023/07/17 11:34:26;;;;;;;;;;;;;;;28.56;36.15;100938.77;2361313;74;51599;-75
2023/07/17 11:37:35;;;;;;;;;;;;;;;28.55;36.28;100937.66;2335399;74;50915;-75
2023/07/17 11:40:54;;;;;;;;;;;;;;;28.55;36.23;100940.39;2396488;74;50261;-74
2023/07/17 11:43:57;;;;;;;;;;;;;;;28.56;36.19;100928.41;2400044;73;51509;-77
2023/07/17 11:47:00;;;;;;;;;;;;;;;28.55;36.08;100944.47;2399025;73;51271;-75
2023/07/17 11:50:02;;;;;;;;;;;;;;;28.55;36.16;100948.55;2363728;74;50600;-76
2023/07/17 11:53:04;;;;;;;;;;;;;;;28.54;36.09;100934.12;2362327;74;50352;-77
2023/07/17 11:56:06;;;;;;;;;;;;;;;28.57;36.00;100933.62;2395828;74;51489;-76
2023/07/17 11:59:18;;;;;;;;;;;;;;;28.57;36.00;100925.46;2364426;74;51561;-76
2023/07/17 12:02:20;;;;;;;;;;;;;;;28.57;36.08;100930.09;2366604;74;52028;-77
2023/07/17 12:05:21;;;;;;;;;;;;;;;28.56;35.95;100931.14;2362451;74;50758;-76
2023/07/17 12:08:23;;;;;;;;;;;;;;;28.54;35.99;100928.67;2362474;74;51436;-77
2023/07/17 12:11:25;;;;;;;;;;;;;;;28.56;35.95;100916.98;2361736;74;50343;-76
2023/07/17 12:14:26;;;;;;;;;;;;;;;28.58;35.89;100924.92;2389261;74;51142;-76
2023/07/17 12:17:28;;;;;;;;;;;;;;;28.55;35.94;100932.22;2361632;74;50489;-76
2023/07/17 12:20:32;;;;;;;;;;;;;;;28.55;35.98;100922.15;2389418;74;51636;-76
2023/07/17 12:23:34;;;;;;;;;;;;;;;28.56;35.96;100909.36;2362236;74;22715;-76
2023/07/17 12:26:35;;;;;;;;;;;;;;;28.54;35.93;100916.94;2335134;74;51466;-76
2023/07/17 12:29:37;;;;;;;;;;;;;;;28.54;35.90;100910.12;2394958;74;50900;-76
2023/07/17 12:32:39;;;;;;;;;;;;;;;28.56;35.96;100913.44;2395167;74;51477;-76
2023/07/17 12:35:41;;;;;;;;;;;;;;;28.55;35.84;100918.06;2395354;73;50309;-76
2023/07/17 12:38:43;;;;;;;;;;;;;;;28.54;35.91;100915.58;2335084;74;51472;-76
2023/07/17 12:41:44;;;;;;;;;;;;;;;28.55;35.85;100908.53;2395056;74;50620;-76
2023/07/17 12:44:46;;;;;;;;;;;;;;;28.54;35.80;100919.14;2361495;74;50715;-76
2023/07/17 12:47:47;;;;;;;;;;;;;;;28.55;35.78;100921.33;2394756;74;51550;-77
2023/07/17 12:50:49;;;;;;;;;;;;;;;28.54;35.69;100905.53;2388952;74;51034;-76
2023/07/17 12:53:51;;;;;;;;;;;;;;;28.55;35.69;100906.36;2395025;74;51461;-76
2023/07/17 12:56:53;;;;;;;;;;;;;;;28.54;35.59;100900.60;2394798;74;51433;-76
2023/07/17 12:59:54;;;;;;;;;;;;;;;28.56;35.43;100909.36;2395123;74;51376;-75
2023/07/17 13:02:56;;;;;;;;;;;;;;;28.54;35.61;100897.37;2334922;74;52440;-76
2023/07/17 13:05:57;;;;;;;;;;;;;;;28.54;35.61;100901.96;2361948;74;50218;-76
2023/07/17 13:08:59;;;;;;;;;;;;;;;28.57;35.63;100891.97;2362301;74;49959;-75
2023/07/17 13:12:01;;;;;;;;;;;;;;;28.58;35.61;100915.39;2394910;73;50008;-75
2023/07/17 13:15:03;;;;;;;;;;;;;;;28.58;35.55;100897.70;2334927;74;51084;-75
2023/07/17 13:18:04;;;;;;;;;;;;;;;28.58;35.56;100906.68;2361406;74;51433;-75
2023/07/17 13:21:07;;;;;;;;;;;;;;;28.57;35.59;100896.05;2361488;74;50101;-75
2023/07/17 13:24:08;;;;;;;;;;;;;;;28.56;35.57;100890.30;2394934;74;51468;-76
2023/07/17 13:27:10;;;;;;;;;;;;;;;28.58;35.56;100885.44;2388825;74;51191;-75
2023/07/17 13:30:12;;;;;;;;;;;;;;;28.56;35.58;100900.65;2361428;74;50280;-76
2023/07/17 13:33:13;;;;;;;;;;;;;;;28.56;35.68;100895.74;2361336;74;50143;-76
2023/07/17 13:36:15;;;;;;;;;;;;;;;28.57;35.71;100898.78;2361291;74;50616;-76
2023/07/17 13:39:16;;;;;;;;;;;;;;;28.57;35.68;100891.97;2396598;74;51408;-75
2023/07/17 13:42:18;;;;;;;;;;;;;;;28.59;35.55;100888.44;2391463;73;50662;-75
2023/07/17 13:45:21;;;;;;;;;;;;;;;28.60;35.55;100890.94;2391487;74;51414;-75
2023/07/17 13:48:22;;;;;;;;;;;;;;;28.59;35.70;100881.64;2391297;74;49992;-75
2023/07/17 13:51:24;;;;;;;;;;;;;;;28.58;35.68;100890.34;2363534;74;51713;-77
2023/07/17 13:54:26;;;;;;;;;;;;;;;28.59;35.70;100888.44;2397298;74;51339;-76
2023/07/17 13:57:27;;;;;;;;;;;;;;;28.60;35.74;100895.56;2391280;74;51498;-75
2023/07/17 14:00:30;;;;;;;;;;;;;;;28.61;35.77;100883.59;2397350;74;52144;-75
2023/07/17 14:03:31;;;;;;;;;;;;;;;28.59;35.80;100885.72;2397506;74;50673;-76
2023/07/17 14:06:33;;;;;;;;;;;;;;;28.57;35.95;100886.53;2391169;73;51595;-75
2023/07/17 14:09:35;;;;;;;;;;;;;;;28.55;36.06;100884.58;2395842;74;51519;-76
2023/07/17 14:12:36;;;;;;;;;;;;;;;28.57;36.03;100883.80;2361229;74;51433;-75
2023/07/17 14:15:38;;;;;;;;;;;;;;;28.59;36.08;100892.53;2389066;74;52768;-75
2023/07/17 14:18:39;;;;;;;;;;;;;;;28.60;36.06;100892.84;2361262;74;50283;-75
2023/07/17 14:21:41;;;;;;;;;;;;;;;28.57;36.12;100890.61;2361408;74;49994;-76
2023/07/17 14:24:42;;;;;;;;;;;;;;;28.55;36.20;100907.17;2361315;74;50352;-75
2023/07/17 14:27:44;;;;;;;;;;;;;;;28.55;36.23;100899.55;2334512;74;50042;-75
2023/07/17 14:30:46;;;;;;;;;;;;;;;28.57;36.27;100893.33;2395062;73;51503;-76
2023/07/17 14:33:47;;;;;;;;;;;;;;;28.53;36.31;100892.16;2395066;74;50722;-75
2023/07/17 14:36:50;;;;;;;;;;;;;;;28.53;36.33;100873.92;2394957;73;51383;-75
2023/07/17 14:39:51;;;;;;;;;;;;;;;28.50;36.34;100900.81;2390539;74;50107;-75
2023/07/17 14:42:53;;;;;;;;;;;;;;;28.49;36.32;100897.27;2391484;74;51459;-76
2023/07/17 14:45:54;;;;;;;;;;;;;;;28.51;36.24;100894.29;2397279;74;50722;-76
2023/07/17 14:48:56;;;;;;;;;;;;;;;28.54;36.19;100889.20;2391152;73;52208;-75
2023/07/17 14:51:58;;;;;;;;;;;;;;;28.59;36.06;100887.08;2397255;74;50630;-75
2023/07/17 14:54:59;;;;;;;;;;;;;;;28.63;36.00;100882.81;2397394;73;50389;-76
2023/07/17 14:58:01;;;;;;;;;;;;;;;28.62;36.10;100890.16;2397208;74;50291;-76
2023/07/17 15:01:03;;;;;;;;;;;;;;;28.60;36.13;100888.75;2391331;74;52562;-75
2023/07/17 15:04:05;;;;;;;;;;;;;;;28.56;36.19;100880.23;2391513;74;49638;-75
2023/07/17 15:07:06;;;;;;;;;;;;;;;28.54;36.29;100876.09;2397082;74;51761;-75
2023/07/17 15:10:09;;;;;;;;;;;;;;;28.55;36.31;100884.58;2396511;73;50234;-76
2023/07/17 15:13:11;;;;;;;;;;;;;;;28.53;36.32;100873.92;2391430;73;50221;-75
2023/07/17 15:16:12;;;;;;;;;;;;;;;28.56;36.34;100853.00;2391211;74;50975;-77
2023/07/17 15:19:14;;;;;;;;;;;;;;;28.55;36.33;100852.73;2391277;74;50625;-75
2023/07/17 15:22:15;;;;;;;;;;;;;;;28.56;36.36;100856.27;2397293;73;50618;-75
2023/07/17 15:25:17;;;;;;;;;;;;;;;28.56;36.37;100857.63;2391311;73;51544;-75
2023/07/17 15:28:19;;;;;;;;;;;;;;;28.57;36.37;100859.30;2391019;73;50145;-75
2023/07/17 15:31:20;;;;;;;;;;;;;;;28.55;36.40;100867.70;2391279;73;51415;-76
2023/07/17 15:34:22;;;;;;;;;;;;;;;28.57;36.40;100863.39;2397382;74;51416;-76